map of LEX home
LEX - Airport
Location
City:  Lexington, Kentucky, United States
Name:Blue Grass Airport
ICAO:KLEX
IATA:LEX
FAA LID:LEX

Details
Type:Airport (Part 139 Class I)
Use:Public/Civil, International (customs landing rights)
Latitude:3802'12"N (38.036750)
Longitude:8436'31"W (-84.608638)
Datum:WGS 1984
Elevation:979 ft (298 m)
Variation:5.66W (WMM2015 magnetic declination)
-0.06 annual change
Runways:2
Longest:7004 × 150 ft (2135 × 45.5 m), paved

Time
Time Zone:UTC-5 (DST-4)
Local Time:

Weather
METAR:KLEX 182254Z 23004KT 10SM CLR 29/22 A2994 RMK AO2 SLP127 T02890222
TAF:KLEX 182321Z 1900/1924 22005KT P6SM SKC
FM190300 VRB03KT P6SM SKC
FM192100 30004KT P6SM FEW050

Related Locations
Nearby:
Farthest:YAUG: 11311 mi / 18203 km
Augusta [Augusta Airport], WA, AU

Find:

   beyond  
but within

Other Information
Maps:
Delays:
NOTAMs:
Links:
Sources:

  
  • flag of United States
  • flag of Kentucky
  

Airport Diagram

Airport diagram for LEX

Airport diagram PDF

Sectional Chart

Flight Planning
at skyvector.com

Satellite Image

Google Maps Satellite view

 

Copyright © 2004-2018 Karl L. Swartz. All rights reserved.
The Great Circle Mapper name and logo are trademarks of the Great Circle Mapper.
All other trademarks mentioned herein belong to their respective owners.
Please see credits for attibutions and further copyright information.

  Follow gcmap on Facebook Follow gcmap on Twitter Follow gcmap on Google+ GCmap on LinkedIn

hCard Microformat

Geo Microformat